sensor_id;sensor_type;location;lat;lon;timestamp;P1;durP1;ratioP1;P2;durP2;ratioP2
52724;SDS011;38621;52.830;6.914;2022-09-09T00:00:22;6.68;;;3.60;;
52724;SDS011;38621;52.830;6.914;2022-09-09T00:02:54;5.30;;;3.10;;
52724;SDS011;38621;52.830;6.914;2022-09-09T00:05:31;4.65;;;3.42;;
52724;SDS011;38621;52.830;6.914;2022-09-09T00:08:25;6.20;;;3.33;;
52724;SDS011;38621;52.830;6.914;2022-09-09T00:11:15;4.07;;;2.75;;
52724;SDS011;38621;52.830;6.914;2022-09-09T00:14:08;6.40;;;3.50;;
52724;SDS011;38621;52.830;6.914;2022-09-09T00:16:57;8.77;;;3.10;;
52724;SDS011;38621;52.830;6.914;2022-09-09T00:19:33;5.18;;;3.00;;
52724;SDS011;38621;52.830;6.914;2022-09-09T00:22:15;4.68;;;2.85;;
52724;SDS011;38621;52.830;6.914;2022-09-09T00:24:52;4.40;;;2.50;;
52724;SDS011;38621;52.830;6.914;2022-09-09T00:30:22;3.92;;;2.72;;
52724;SDS011;38621;52.830;6.914;2022-09-09T00:32:53;4.40;;;2.88;;
52724;SDS011;38621;52.830;6.914;2022-09-09T00:35:42;6.13;;;3.15;;
52724;SDS011;38621;52.830;6.914;2022-09-09T00:38:16;7.68;;;3.60;;
52724;SDS011;38621;52.830;6.914;2022-09-09T00:40:51;4.85;;;3.30;;
52724;SDS011;38621;52.830;6.914;2022-09-09T00:43:24;6.20;;;3.00;;
52724;SDS011;38621;52.830;6.914;2022-09-09T01:07:58;4.55;;;3.05;;
52724;SDS011;38621;52.830;6.914;2022-09-09T01:13:29;4.97;;;3.00;;
52724;SDS011;38621;52.830;6.914;2022-09-09T01:15:59;4.22;;;3.08;;
52724;SDS011;38621;52.830;6.914;2022-09-09T01:18:34;5.25;;;3.00;;
52724;SDS011;38621;52.830;6.914;2022-09-09T01:21:20;5.60;;;2.78;;
52724;SDS011;38621;52.830;6.914;2022-09-09T01:26:56;4.90;;;2.17;;
52724;SDS011;38621;52.830;6.914;2022-09-09T01:29:26;3.88;;;2.30;;
52724;SDS011;38621;52.830;6.914;2022-09-09T01:31:53;3.85;;;2.70;;
52724;SDS011;38621;52.830;6.914;2022-09-09T01:34:21;6.65;;;2.88;;
52724;SDS011;38621;52.830;6.914;2022-09-09T01:36:50;3.67;;;2.38;;
52724;SDS011;38621;52.830;6.914;2022-09-09T01:39:22;4.43;;;2.90;;
52724;SDS011;38621;52.830;6.914;2022-09-09T01:41:48;5.07;;;2.67;;
52724;SDS011;38621;52.830;6.914;2022-09-09T01:44:14;4.32;;;2.47;;
52724;SDS011;38621;52.830;6.914;2022-09-09T01:46:40;4.03;;;2.80;;
52724;SDS011;38621;52.830;6.914;2022-09-09T01:49:06;4.80;;;2.78;;
52724;SDS011;38621;52.830;6.914;2022-09-09T01:51:33;5.35;;;2.60;;
52724;SDS011;38621;52.830;6.914;2022-09-09T01:54:01;3.33;;;2.50;;
52724;SDS011;38621;52.830;6.914;2022-09-09T02:02:19;4.63;;;3.40;;
52724;SDS011;38621;52.830;6.914;2022-09-09T02:07:50;5.25;;;3.30;;
52724;SDS011;38621;52.830;6.914;2022-09-09T02:10:30;6.85;;;3.60;;
52724;SDS011;38621;52.830;6.914;2022-09-09T02:13:09;5.22;;;3.53;;
52724;SDS011;38621;52.830;6.914;2022-09-09T02:15:46;5.13;;;3.65;;
52724;SDS011;38621;52.830;6.914;2022-09-09T02:18:16;6.88;;;3.30;;
52724;SDS011;38621;52.830;6.914;2022-09-09T02:20:48;5.38;;;3.65;;
52724;SDS011;38621;52.830;6.914;2022-09-09T02:23:15;4.90;;;3.60;;
52724;SDS011;38621;52.830;6.914;2022-09-09T02:25:42;5.20;;;4.20;;
52724;SDS011;38621;52.830;6.914;2022-09-09T02:28:09;5.63;;;3.33;;
52724;SDS011;38621;52.830;6.914;2022-09-09T02:30:37;6.43;;;3.80;;
52724;SDS011;38621;52.830;6.914;2022-09-09T02:33:05;4.88;;;3.83;;
52724;SDS011;38621;52.830;6.914;2022-09-09T02:35:32;6.05;;;3.90;;
52724;SDS011;38621;52.830;6.914;2022-09-09T02:38:03;5.88;;;3.85;;
52724;SDS011;38621;52.830;6.914;2022-09-09T02:40:33;5.72;;;3.70;;
52724;SDS011;38621;52.830;6.914;2022-09-09T02:42:59;5.25;;;3.50;;
52724;SDS011;38621;52.830;6.914;2022-09-09T02:45:26;5.57;;;3.80;;
52724;SDS011;38621;52.830;6.914;2022-09-09T02:50:50;6.70;;;3.92;;
52724;SDS011;38621;52.830;6.914;2022-09-09T02:53:30;6.20;;;3.60;;
52724;SDS011;38621;52.830;6.914;2022-09-09T02:56:05;5.85;;;3.47;;
52724;SDS011;38621;52.830;6.914;2022-09-09T02:58:36;7.05;;;3.95;;
52724;SDS011;38621;52.830;6.914;2022-09-09T03:01:02;5.88;;;3.92;;
52724;SDS011;38621;52.830;6.914;2022-09-09T03:03:27;5.18;;;3.85;;
52724;SDS011;38621;52.830;6.914;2022-09-09T03:05:54;5.10;;;3.90;;
52724;SDS011;38621;52.830;6.914;2022-09-09T03:08:19;6.07;;;4.00;;
52724;SDS011;38621;52.830;6.914;2022-09-09T03:10:45;5.68;;;3.60;;
52724;SDS011;38621;52.830;6.914;2022-09-09T03:13:11;5.80;;;3.42;;
52724;SDS011;38621;52.830;6.914;2022-09-09T03:15:40;5.78;;;3.83;;
52724;SDS011;38621;52.830;6.914;2022-09-09T03:18:06;5.13;;;3.45;;
52724;SDS011;38621;52.830;6.914;2022-09-09T03:20:32;4.22;;;3.08;;
52724;SDS011;38621;52.830;6.914;2022-09-09T03:22:59;4.35;;;2.95;;
52724;SDS011;38621;52.830;6.914;2022-09-09T03:25:25;4.18;;;2.60;;
52724;SDS011;38621;52.830;6.914;2022-09-09T03:27:52;4.13;;;2.92;;
52724;SDS011;38621;52.830;6.914;2022-09-09T03:30:23;4.25;;;2.92;;
52724;SDS011;38621;52.830;6.914;2022-09-09T03:32:50;4.55;;;3.08;;
52724;SDS011;38621;52.830;6.914;2022-09-09T03:35:16;4.57;;;2.40;;
52724;SDS011;38621;52.830;6.914;2022-09-09T03:37:42;3.45;;;2.05;;
52724;SDS011;38621;52.830;6.914;2022-09-09T03:40:07;2.92;;;1.63;;
52724;SDS011;38621;52.830;6.914;2022-09-09T03:42:35;3.33;;;1.30;;
52724;SDS011;38621;52.830;6.914;2022-09-09T03:45:02;7.78;;;1.50;;
52724;SDS011;38621;52.830;6.914;2022-09-09T03:47:30;2.42;;;1.10;;
52724;SDS011;38621;52.830;6.914;2022-09-09T03:49:55;3.00;;;0.98;;
52724;SDS011;38621;52.830;6.914;2022-09-09T03:52:21;2.35;;;1.00;;
52724;SDS011;38621;52.830;6.914;2022-09-09T03:54:50;2.08;;;0.95;;
52724;SDS011;38621;52.830;6.914;2022-09-09T03:57:16;1.92;;;1.00;;
52724;SDS011;38621;52.830;6.914;2022-09-09T03:59:42;3.47;;;1.65;;
52724;SDS011;38621;52.830;6.914;2022-09-09T04:02:08;3.10;;;1.65;;
52724;SDS011;38621;52.830;6.914;2022-09-09T04:04:34;3.15;;;1.90;;
52724;SDS011;38621;52.830;6.914;2022-09-09T04:07:00;4.03;;;2.10;;
52724;SDS011;38621;52.830;6.914;2022-09-09T04:09:26;4.57;;;2.50;;
52724;SDS011;38621;52.830;6.914;2022-09-09T04:11:52;4.15;;;2.70;;
52724;SDS011;38621;52.830;6.914;2022-09-09T04:14:18;4.20;;;2.92;;
52724;SDS011;38621;52.830;6.914;2022-09-09T04:16:44;4.90;;;3.42;;
52724;SDS011;38621;52.830;6.914;2022-09-09T04:19:11;5.60;;;3.83;;
52724;SDS011;38621;52.830;6.914;2022-09-09T04:21:41;5.80;;;3.40;;
52724;SDS011;38621;52.830;6.914;2022-09-09T04:24:07;5.30;;;3.70;;
52724;SDS011;38621;52.830;6.914;2022-09-09T04:26:34;5.82;;;3.75;;
52724;SDS011;38621;52.830;6.914;2022-09-09T04:29:01;4.78;;;3.65;;
52724;SDS011;38621;52.830;6.914;2022-09-09T04:31:28;7.25;;;3.50;;
52724;SDS011;38621;52.830;6.914;2022-09-09T04:33:54;5.93;;;3.63;;
52724;SDS011;38621;52.830;6.914;2022-09-09T04:36:20;5.07;;;3.90;;
52724;SDS011;38621;52.830;6.914;2022-09-09T04:38:46;4.88;;;3.85;;
52724;SDS011;38621;52.830;6.914;2022-09-09T04:41:13;4.65;;;3.47;;
52724;SDS011;38621;52.830;6.914;2022-09-09T04:43:39;4.65;;;3.72;;
52724;SDS011;38621;52.830;6.914;2022-09-09T04:46:05;5.40;;;3.80;;
52724;SDS011;38621;52.830;6.914;2022-09-09T04:48:31;5.30;;;3.67;;
52724;SDS011;38621;52.830;6.914;2022-09-09T04:50:57;6.55;;;3.85;;
52724;SDS011;38621;52.830;6.914;2022-09-09T04:53:24;6.55;;;3.70;;
52724;SDS011;38621;52.830;6.914;2022-09-09T04:55:51;5.75;;;3.47;;
52724;SDS011;38621;52.830;6.914;2022-09-09T04:58:18;6.78;;;3.70;;
52724;SDS011;38621;52.830;6.914;2022-09-09T05:00:44;6.85;;;3.85;;
52724;SDS011;38621;52.830;6.914;2022-09-09T05:03:09;5.55;;;3.45;;
52724;SDS011;38621;52.830;6.914;2022-09-09T05:05:35;4.53;;;3.40;;
52724;SDS011;38621;52.830;6.914;2022-09-09T05:08:04;4.50;;;3.17;;
52724;SDS011;38621;52.830;6.914;2022-09-09T05:10:32;7.82;;;3.47;;
52724;SDS011;38621;52.830;6.914;2022-09-09T05:12:58;5.47;;;3.63;;
52724;SDS011;38621;52.830;6.914;2022-09-09T05:15:24;6.10;;;3.50;;
52724;SDS011;38621;52.830;6.914;2022-09-09T05:17:50;4.40;;;3.28;;
52724;SDS011;38621;52.830;6.914;2022-09-09T05:20:17;4.45;;;3.33;;
52724;SDS011;38621;52.830;6.914;2022-09-09T05:22:43;4.72;;;3.40;;
52724;SDS011;38621;52.830;6.914;2022-09-09T05:25:09;6.10;;;3.15;;
52724;SDS011;38621;52.830;6.914;2022-09-09T05:27:34;5.28;;;3.60;;
52724;SDS011;38621;52.830;6.914;2022-09-09T05:30:00;6.18;;;3.15;;
52724;SDS011;38621;52.830;6.914;2022-09-09T05:32:26;4.68;;;3.45;;
52724;SDS011;38621;52.830;6.914;2022-09-09T05:34:52;6.28;;;3.13;;
52724;SDS011;38621;52.830;6.914;2022-09-09T05:37:18;7.00;;;3.63;;
52724;SDS011;38621;52.830;6.914;2022-09-09T05:39:44;4.07;;;3.22;;
52724;SDS011;38621;52.830;6.914;2022-09-09T05:42:10;4.60;;;3.45;;
52724;SDS011;38621;52.830;6.914;2022-09-09T05:44:35;6.15;;;3.65;;
52724;SDS011;38621;52.830;6.914;2022-09-09T05:47:02;5.47;;;3.15;;
52724;SDS011;38621;52.830;6.914;2022-09-09T05:49:28;5.13;;;3.58;;
52724;SDS011;38621;52.830;6.914;2022-09-09T05:51:54;4.78;;;2.92;;
52724;SDS011;38621;52.830;6.914;2022-09-09T05:54:19;5.47;;;3.33;;
52724;SDS011;38621;52.830;6.914;2022-09-09T05:56:45;4.95;;;3.15;;
52724;SDS011;38621;52.830;6.914;2022-09-09T05:59:11;4.20;;;3.10;;
52724;SDS011;38621;52.830;6.914;2022-09-09T06:01:37;4.65;;;3.10;;
52724;SDS011;38621;52.830;6.914;2022-09-09T06:04:05;3.63;;;3.00;;
52724;SDS011;38621;52.830;6.914;2022-09-09T06:06:35;4.95;;;3.20;;
52724;SDS011;38621;52.830;6.914;2022-09-09T06:09:05;4.05;;;3.00;;
52724;SDS011;38621;52.830;6.914;2022-09-09T06:11:35;3.70;;;2.78;;
52724;SDS011;38621;52.830;6.914;2022-09-09T06:14:02;4.00;;;3.15;;
52724;SDS011;38621;52.830;6.914;2022-09-09T06:16:29;5.20;;;3.10;;
52724;SDS011;38621;52.830;6.914;2022-09-09T06:18:57;4.75;;;3.30;;
52724;SDS011;38621;52.830;6.914;2022-09-09T06:21:24;4.60;;;3.08;;
52724;SDS011;38621;52.830;6.914;2022-09-09T06:23:52;4.10;;;2.85;;
52724;SDS011;38621;52.830;6.914;2022-09-09T06:26:22;4.32;;;2.80;;
52724;SDS011;38621;52.830;6.914;2022-09-09T06:28:50;6.32;;;3.08;;
52724;SDS011;38621;52.830;6.914;2022-09-09T06:31:18;4.50;;;3.25;;
52724;SDS011;38621;52.830;6.914;2022-09-09T06:33:49;4.47;;;2.55;;
52724;SDS011;38621;52.830;6.914;2022-09-09T06:36:20;4.65;;;3.10;;
52724;SDS011;38621;52.830;6.914;2022-09-09T06:38:50;5.13;;;2.97;;
52724;SDS011;38621;52.830;6.914;2022-09-09T06:41:17;4.65;;;3.15;;
52724;SDS011;38621;52.830;6.914;2022-09-09T06:43:46;5.63;;;3.28;;
52724;SDS011;38621;52.830;6.914;2022-09-09T06:46:19;6.07;;;3.40;;
52724;SDS011;38621;52.830;6.914;2022-09-09T06:48:48;4.05;;;2.80;;
52724;SDS011;38621;52.830;6.914;2022-09-09T06:51:15;6.10;;;3.17;;
52724;SDS011;38621;52.830;6.914;2022-09-09T06:53:46;3.70;;;2.95;;
52724;SDS011;38621;52.830;6.914;2022-09-09T06:56:19;4.05;;;3.10;;
52724;SDS011;38621;52.830;6.914;2022-09-09T06:58:50;4.10;;;3.05;;
52724;SDS011;38621;52.830;6.914;2022-09-09T07:01:18;6.38;;;3.55;;
52724;SDS011;38621;52.830;6.914;2022-09-09T07:03:46;5.55;;;3.70;;
52724;SDS011;38621;52.830;6.914;2022-09-09T07:06:22;4.20;;;3.58;;
52724;SDS011;38621;52.830;6.914;2022-09-09T07:08:53;4.32;;;3.20;;
52724;SDS011;38621;52.830;6.914;2022-09-09T07:11:21;4.35;;;3.63;;
52724;SDS011;38621;52.830;6.914;2022-09-09T07:13:48;6.38;;;3.65;;
52724;SDS011;38621;52.830;6.914;2022-09-09T07:16:15;4.40;;;3.20;;
52724;SDS011;38621;52.830;6.914;2022-09-09T07:18:42;5.85;;;3.40;;
52724;SDS011;38621;52.830;6.914;2022-09-09T07:21:09;4.32;;;3.22;;
52724;SDS011;38621;52.830;6.914;2022-09-09T07:23:39;5.90;;;3.28;;
52724;SDS011;38621;52.830;6.914;2022-09-09T07:26:13;5.10;;;3.47;;
52724;SDS011;38621;52.830;6.914;2022-09-09T07:28:40;4.65;;;3.38;;
52724;SDS011;38621;52.830;6.914;2022-09-09T07:31:07;8.40;;;3.55;;
52724;SDS011;38621;52.830;6.914;2022-09-09T07:33:38;5.32;;;3.45;;
52724;SDS011;38621;52.830;6.914;2022-09-09T07:36:16;4.03;;;3.03;;
52724;SDS011;38621;52.830;6.914;2022-09-09T07:38:51;4.20;;;3.45;;
52724;SDS011;38621;52.830;6.914;2022-09-09T07:41:22;5.03;;;3.08;;
52724;SDS011;38621;52.830;6.914;2022-09-09T07:43:53;5.60;;;3.70;;
52724;SDS011;38621;52.830;6.914;2022-09-09T07:46:20;3.55;;;2.95;;
52724;SDS011;38621;52.830;6.914;2022-09-09T07:48:48;5.28;;;3.20;;
52724;SDS011;38621;52.830;6.914;2022-09-09T07:51:19;4.30;;;3.33;;
52724;SDS011;38621;52.830;6.914;2022-09-09T07:53:47;3.70;;;3.00;;
52724;SDS011;38621;52.830;6.914;2022-09-09T07:56:16;4.78;;;3.13;;
52724;SDS011;38621;52.830;6.914;2022-09-09T07:58:46;6.60;;;3.22;;
52724;SDS011;38621;52.830;6.914;2022-09-09T08:01:19;6.63;;;3.55;;
52724;SDS011;38621;52.830;6.914;2022-09-09T08:03:57;4.88;;;3.35;;
52724;SDS011;38621;52.830;6.914;2022-09-09T08:06:26;5.18;;;3.60;;
52724;SDS011;38621;52.830;6.914;2022-09-09T08:09:02;6.75;;;3.20;;
52724;SDS011;38621;52.830;6.914;2022-09-09T08:11:29;5.88;;;3.50;;
52724;SDS011;38621;52.830;6.914;2022-09-09T08:13:55;4.90;;;3.83;;
52724;SDS011;38621;52.830;6.914;2022-09-09T08:16:22;7.50;;;3.90;;
52724;SDS011;38621;52.830;6.914;2022-09-09T08:18:50;4.68;;;3.60;;
52724;SDS011;38621;52.830;6.914;2022-09-09T08:21:18;4.10;;;3.70;;
52724;SDS011;38621;52.830;6.914;2022-09-09T08:23:46;4.47;;;3.33;;
52724;SDS011;38621;52.830;6.914;2022-09-09T08:26:16;5.15;;;3.75;;
52724;SDS011;38621;52.830;6.914;2022-09-09T08:28:49;5.20;;;3.40;;
52724;SDS011;38621;52.830;6.914;2022-09-09T08:31:33;4.72;;;3.88;;
52724;SDS011;38621;52.830;6.914;2022-09-09T08:34:01;5.63;;;3.88;;
52724;SDS011;38621;52.830;6.914;2022-09-09T08:36:29;4.63;;;3.50;;
52724;SDS011;38621;52.830;6.914;2022-09-09T08:38:58;5.20;;;3.80;;
52724;SDS011;38621;52.830;6.914;2022-09-09T08:46:46;4.72;;;2.90;;
52724;SDS011;38621;52.830;6.914;2022-09-09T08:51:50;6.03;;;3.42;;
52724;SDS011;38621;52.830;6.914;2022-09-09T08:54:20;3.75;;;2.75;;
52724;SDS011;38621;52.830;6.914;2022-09-09T08:56:47;5.53;;;2.97;;
52724;SDS011;38621;52.830;6.914;2022-09-09T08:59:14;5.10;;;2.72;;
52724;SDS011;38621;52.830;6.914;2022-09-09T09:01:48;3.80;;;2.15;;
52724;SDS011;38621;52.830;6.914;2022-09-09T09:04:38;4.80;;;2.75;;
52724;SDS011;38621;52.830;6.914;2022-09-09T09:12:40;4.70;;;2.47;;
52724;SDS011;38621;52.830;6.914;2022-09-09T09:15:21;5.47;;;2.67;;
52724;SDS011;38621;52.830;6.914;2022-09-09T09:17:50;4.75;;;2.30;;
52724;SDS011;38621;52.830;6.914;2022-09-09T09:20:18;5.57;;;2.70;;
52724;SDS011;38621;52.830;6.914;2022-09-09T09:22:52;4.68;;;1.77;;
52724;SDS011;38621;52.830;6.914;2022-09-09T09:25:27;3.85;;;2.00;;
52724;SDS011;38621;52.830;6.914;2022-09-09T09:30:40;4.78;;;1.80;;
52724;SDS011;38621;52.830;6.914;2022-09-09T09:36:01;3.42;;;2.10;;
52724;SDS011;38621;52.830;6.914;2022-09-09T09:38:28;4.95;;;2.40;;
52724;SDS011;38621;52.830;6.914;2022-09-09T09:40:57;3.58;;;1.95;;
52724;SDS011;38621;52.830;6.914;2022-09-09T09:43:28;4.25;;;1.80;;
52724;SDS011;38621;52.830;6.914;2022-09-09T09:46:04;6.15;;;2.03;;
52724;SDS011;38621;52.830;6.914;2022-09-09T09:48:42;3.92;;;1.75;;
52724;SDS011;38621;52.830;6.914;2022-09-09T09:51:12;3.47;;;1.67;;
52724;SDS011;38621;52.830;6.914;2022-09-09T09:53:41;5.07;;;1.90;;
52724;SDS011;38621;52.830;6.914;2022-09-09T09:56:08;3.92;;;1.77;;
52724;SDS011;38621;52.830;6.914;2022-09-09T09:58:57;5.72;;;2.45;;
52724;SDS011;38621;52.830;6.914;2022-09-09T10:01:29;5.32;;;1.63;;
52724;SDS011;38621;52.830;6.914;2022-09-09T10:06:37;5.28;;;1.70;;
52724;SDS011;38621;52.830;6.914;2022-09-09T10:09:18;3.90;;;1.48;;
52724;SDS011;38621;52.830;6.914;2022-09-09T10:14:30;3.17;;;1.42;;
52724;SDS011;38621;52.830;6.914;2022-09-09T10:22:46;5.85;;;1.55;;
52724;SDS011;38621;52.830;6.914;2022-09-09T10:25:58;3.65;;;1.30;;
52724;SDS011;38621;52.830;6.914;2022-09-09T10:31:19;5.03;;;1.70;;
52724;SDS011;38621;52.830;6.914;2022-09-09T10:33:59;4.43;;;1.48;;
52724;SDS011;38621;52.830;6.914;2022-09-09T10:36:49;5.38;;;1.30;;
52724;SDS011;38621;52.830;6.914;2022-09-09T10:39:18;3.30;;;1.35;;
52724;SDS011;38621;52.830;6.914;2022-09-09T10:42:06;2.90;;;1.27;;
52724;SDS011;38621;52.830;6.914;2022-09-09T10:52:56;3.50;;;1.30;;
52724;SDS011;38621;52.830;6.914;2022-09-09T10:56:06;2.83;;;1.10;;
52724;SDS011;38621;52.830;6.914;2022-09-09T10:58:42;4.07;;;1.30;;
52724;SDS011;38621;52.830;6.914;2022-09-09T11:01:12;3.45;;;1.20;;
52724;SDS011;38621;52.830;6.914;2022-09-09T11:03:48;3.92;;;1.17;;
52724;SDS011;38621;52.830;6.914;2022-09-09T11:06:19;3.40;;;1.20;;
52724;SDS011;38621;52.830;6.914;2022-09-09T11:08:49;2.40;;;0.90;;
52724;SDS011;38621;52.830;6.914;2022-09-09T11:11:22;4.05;;;1.42;;
52724;SDS011;38621;52.830;6.914;2022-09-09T11:14:11;4.72;;;1.38;;
52724;SDS011;38621;52.830;6.914;2022-09-09T11:16:42;2.97;;;1.10;;
52724;SDS011;38621;52.830;6.914;2022-09-09T11:19:36;2.10;;;0.98;;
52724;SDS011;38621;52.830;6.914;2022-09-09T11:22:12;3.63;;;1.15;;
52724;SDS011;38621;52.830;6.914;2022-09-09T11:27:53;3.88;;;1.23;;
52724;SDS011;38621;52.830;6.914;2022-09-09T11:41:51;5.18;;;1.30;;
52724;SDS011;38621;52.830;6.914;2022-09-09T11:44:18;4.50;;;1.00;;
52724;SDS011;38621;52.830;6.914;2022-09-09T11:46:52;3.50;;;1.13;;
52724;SDS011;38621;52.830;6.914;2022-09-09T11:49:28;2.90;;;1.10;;
52724;SDS011;38621;52.830;6.914;2022-09-09T11:52:10;3.53;;;1.00;;
52724;SDS011;38621;52.830;6.914;2022-09-09T12:00:27;3.13;;;0.98;;
52724;SDS011;38621;52.830;6.914;2022-09-09T12:03:03;2.53;;;1.08;;
52724;SDS011;38621;52.830;6.914;2022-09-09T12:05:36;3.08;;;1.05;;
52724;SDS011;38621;52.830;6.914;2022-09-09T12:08:05;2.92;;;1.02;;
52724;SDS011;38621;52.830;6.914;2022-09-09T12:10:36;2.20;;;1.02;;
52724;SDS011;38621;52.830;6.914;2022-09-09T12:13:15;2.67;;;1.00;;
52724;SDS011;38621;52.830;6.914;2022-09-09T12:15:49;3.72;;;1.20;;
52724;SDS011;38621;52.830;6.914;2022-09-09T12:18:34;2.20;;;0.80;;
52724;SDS011;38621;52.830;6.914;2022-09-09T12:23:53;2.30;;;0.80;;
52724;SDS011;38621;52.830;6.914;2022-09-09T12:32:07;2.85;;;1.08;;
52724;SDS011;38621;52.830;6.914;2022-09-09T12:34:38;2.53;;;0.70;;
52724;SDS011;38621;52.830;6.914;2022-09-09T12:37:32;3.58;;;0.80;;
52724;SDS011;38621;52.830;6.914;2022-09-09T12:40:34;2.83;;;0.80;;
52724;SDS011;38621;52.830;6.914;2022-09-09T12:43:00;3.70;;;1.10;;
52724;SDS011;38621;52.830;6.914;2022-09-09T12:45:47;3.00;;;0.90;;
52724;SDS011;38621;52.830;6.914;2022-09-09T12:48:16;5.60;;;1.40;;
52724;SDS011;38621;52.830;6.914;2022-09-09T12:50:45;4.55;;;1.40;;
52724;SDS011;38621;52.830;6.914;2022-09-09T12:53:29;3.33;;;1.00;;
52724;SDS011;38621;52.830;6.914;2022-09-09T12:58:27;3.25;;;1.00;;
52724;SDS011;38621;52.830;6.914;2022-09-09T13:00:58;3.97;;;0.90;;
52724;SDS011;38621;52.830;6.914;2022-09-09T13:03:25;2.95;;;1.00;;
52724;SDS011;38621;52.830;6.914;2022-09-09T13:05:52;3.40;;;1.10;;
52724;SDS011;38621;52.830;6.914;2022-09-09T13:08:18;2.95;;;1.30;;
52724;SDS011;38621;52.830;6.914;2022-09-09T13:10:59;3.00;;;1.17;;
52724;SDS011;38621;52.830;6.914;2022-09-09T13:13:33;3.55;;;0.98;;
52724;SDS011;38621;52.830;6.914;2022-09-09T13:16:01;2.15;;;1.00;;
52724;SDS011;38621;52.830;6.914;2022-09-09T13:18:30;3.30;;;0.90;;
52724;SDS011;38621;52.830;6.914;2022-09-09T13:20:59;1.88;;;0.80;;
52724;SDS011;38621;52.830;6.914;2022-09-09T13:23:27;3.33;;;1.00;;
52724;SDS011;38621;52.830;6.914;2022-09-09T13:26:01;1.95;;;0.70;;
52724;SDS011;38621;52.830;6.914;2022-09-09T13:28:47;3.58;;;1.15;;
52724;SDS011;38621;52.830;6.914;2022-09-09T13:31:22;2.85;;;1.20;;
52724;SDS011;38621;52.830;6.914;2022-09-09T13:33:58;4.90;;;1.10;;
52724;SDS011;38621;52.830;6.914;2022-09-09T13:36:32;2.30;;;0.90;;
52724;SDS011;38621;52.830;6.914;2022-09-09T13:39:00;3.53;;;1.10;;
52724;SDS011;38621;52.830;6.914;2022-09-09T13:41:34;1.67;;;0.90;;
52724;SDS011;38621;52.830;6.914;2022-09-09T13:44:02;3.42;;;1.10;;
52724;SDS011;38621;52.830;6.914;2022-09-09T13:46:33;2.20;;;1.02;;
52724;SDS011;38621;52.830;6.914;2022-09-09T13:49:02;2.60;;;1.00;;
52724;SDS011;38621;52.830;6.914;2022-09-09T13:54:08;4.65;;;1.00;;
52724;SDS011;38621;52.830;6.914;2022-09-09T13:56:35;2.92;;;1.50;;
52724;SDS011;38621;52.830;6.914;2022-09-09T13:59:03;2.13;;;0.98;;
52724;SDS011;38621;52.830;6.914;2022-09-09T14:01:30;4.00;;;1.05;;
52724;SDS011;38621;52.830;6.914;2022-09-09T14:03:56;2.90;;;1.05;;
52724;SDS011;38621;52.830;6.914;2022-09-09T14:06:22;2.42;;;0.98;;
52724;SDS011;38621;52.830;6.914;2022-09-09T14:08:49;1.52;;;0.93;;
52724;SDS011;38621;52.830;6.914;2022-09-09T14:11:16;4.07;;;1.48;;
52724;SDS011;38621;52.830;6.914;2022-09-09T14:13:42;2.80;;;0.90;;
52724;SDS011;38621;52.830;6.914;2022-09-09T14:16:07;2.20;;;1.45;;
52724;SDS011;38621;52.830;6.914;2022-09-09T14:18:34;2.75;;;1.13;;
52724;SDS011;38621;52.830;6.914;2022-09-09T14:21:00;3.35;;;1.10;;
52724;SDS011;38621;52.830;6.914;2022-09-09T14:23:27;2.65;;;1.10;;
52724;SDS011;38621;52.830;6.914;2022-09-09T14:25:54;2.65;;;0.93;;
52724;SDS011;38621;52.830;6.914;2022-09-09T14:28:20;2.45;;;0.70;;
52724;SDS011;38621;52.830;6.914;2022-09-09T14:30:45;1.92;;;0.82;;
52724;SDS011;38621;52.830;6.914;2022-09-09T14:33:12;0.85;;;0.45;;
52724;SDS011;38621;52.830;6.914;2022-09-09T14:35:39;1.92;;;0.60;;
52724;SDS011;38621;52.830;6.914;2022-09-09T14:38:06;0.93;;;0.55;;
52724;SDS011;38621;52.830;6.914;2022-09-09T14:40:33;1.10;;;0.45;;
52724;SDS011;38621;52.830;6.914;2022-09-09T14:43:00;1.48;;;0.50;;
52724;SDS011;38621;52.830;6.914;2022-09-09T14:45:27;1.13;;;0.50;;
52724;SDS011;38621;52.830;6.914;2022-09-09T14:47:53;1.20;;;0.47;;
52724;SDS011;38621;52.830;6.914;2022-09-09T14:50:20;1.05;;;0.63;;
52724;SDS011;38621;52.830;6.914;2022-09-09T14:52:46;1.70;;;0.60;;
52724;SDS011;38621;52.830;6.914;2022-09-09T14:55:12;1.65;;;0.50;;
52724;SDS011;38621;52.830;6.914;2022-09-09T14:57:38;2.28;;;0.60;;
52724;SDS011;38621;52.830;6.914;2022-09-09T15:00:05;1.85;;;0.80;;
52724;SDS011;38621;52.830;6.914;2022-09-09T15:02:32;1.92;;;0.90;;
52724;SDS011;38621;52.830;6.914;2022-09-09T15:04:58;1.38;;;0.80;;
52724;SDS011;38621;52.830;6.914;2022-09-09T15:07:24;2.90;;;1.00;;
52724;SDS011;38621;52.830;6.914;2022-09-09T15:09:51;1.45;;;0.68;;
52724;SDS011;38621;52.830;6.914;2022-09-09T15:12:18;1.60;;;0.77;;
52724;SDS011;38621;52.830;6.914;2022-09-09T15:14:44;2.28;;;0.70;;
52724;SDS011;38621;52.830;6.914;2022-09-09T15:17:10;2.05;;;0.88;;
52724;SDS011;38621;52.830;6.914;2022-09-09T15:19:37;1.60;;;0.70;;
52724;SDS011;38621;52.830;6.914;2022-09-09T15:22:03;1.85;;;0.80;;
52724;SDS011;38621;52.830;6.914;2022-09-09T15:24:31;3.00;;;0.90;;
52724;SDS011;38621;52.830;6.914;2022-09-09T15:26:57;2.22;;;0.85;;
52724;SDS011;38621;52.830;6.914;2022-09-09T15:29:23;2.15;;;0.90;;
52724;SDS011;38621;52.830;6.914;2022-09-09T15:31:49;1.95;;;0.85;;
52724;SDS011;38621;52.830;6.914;2022-09-09T15:34:15;1.50;;;0.70;;
52724;SDS011;38621;52.830;6.914;2022-09-09T15:36:42;3.13;;;0.82;;
52724;SDS011;38621;52.830;6.914;2022-09-09T15:39:10;2.00;;;0.75;;
52724;SDS011;38621;52.830;6.914;2022-09-09T15:41:40;2.63;;;1.10;;
52724;SDS011;38621;52.830;6.914;2022-09-09T15:44:07;2.40;;;1.10;;
52724;SDS011;38621;52.830;6.914;2022-09-09T15:49:20;2.42;;;1.13;;
52724;SDS011;38621;52.830;6.914;2022-09-09T15:51:59;1.92;;;0.80;;
52724;SDS011;38621;52.830;6.914;2022-09-09T15:54:30;2.05;;;0.85;;
52724;SDS011;38621;52.830;6.914;2022-09-09T15:56:59;1.50;;;0.80;;
52724;SDS011;38621;52.830;6.914;2022-09-09T15:59:27;1.90;;;0.90;;
52724;SDS011;38621;52.830;6.914;2022-09-09T16:01:55;1.65;;;0.80;;
52724;SDS011;38621;52.830;6.914;2022-09-09T16:04:22;2.00;;;0.98;;
52724;SDS011;38621;52.830;6.914;2022-09-09T16:06:50;2.10;;;0.80;;
52724;SDS011;38621;52.830;6.914;2022-09-09T16:09:16;3.83;;;1.10;;
52724;SDS011;38621;52.830;6.914;2022-09-09T16:11:42;2.63;;;1.10;;
52724;SDS011;38621;52.830;6.914;2022-09-09T16:14:08;1.67;;;1.00;;
52724;SDS011;38621;52.830;6.914;2022-09-09T16:16:34;2.63;;;1.20;;
52724;SDS011;38621;52.830;6.914;2022-09-09T16:19:03;1.83;;;1.13;;
52724;SDS011;38621;52.830;6.914;2022-09-09T16:21:32;2.20;;;1.02;;
52724;SDS011;38621;52.830;6.914;2022-09-09T16:24:00;2.25;;;1.10;;
52724;SDS011;38621;52.830;6.914;2022-09-09T16:26:28;2.78;;;1.00;;
52724;SDS011;38621;52.830;6.914;2022-09-09T16:28:55;2.28;;;1.00;;
52724;SDS011;38621;52.830;6.914;2022-09-09T16:31:23;2.08;;;0.90;;
52724;SDS011;38621;52.830;6.914;2022-09-09T16:33:49;1.80;;;0.90;;
52724;SDS011;38621;52.830;6.914;2022-09-09T16:36:23;2.03;;;1.05;;
52724;SDS011;38621;52.830;6.914;2022-09-09T16:38:57;1.73;;;0.90;;
52724;SDS011;38621;52.830;6.914;2022-09-09T16:41:24;1.77;;;0.93;;
52724;SDS011;38621;52.830;6.914;2022-09-09T16:43:59;3.25;;;0.80;;
52724;SDS011;38621;52.830;6.914;2022-09-09T16:46:30;4.38;;;1.20;;
52724;SDS011;38621;52.830;6.914;2022-09-09T16:48:58;2.47;;;0.98;;
52724;SDS011;38621;52.830;6.914;2022-09-09T16:51:26;2.92;;;1.00;;
52724;SDS011;38621;52.830;6.914;2022-09-09T16:53:54;2.67;;;1.10;;
52724;SDS011;38621;52.830;6.914;2022-09-09T16:56:23;1.88;;;1.02;;
52724;SDS011;38621;52.830;6.914;2022-09-09T16:58:51;2.50;;;1.00;;
52724;SDS011;38621;52.830;6.914;2022-09-09T17:01:29;2.85;;;1.38;;
52724;SDS011;38621;52.830;6.914;2022-09-09T17:03:57;2.15;;;0.90;;
52724;SDS011;38621;52.830;6.914;2022-09-09T17:06:25;1.58;;;0.90;;